sensor_id;sensor_type;location;lat;lon;timestamp;temperature;humidity
23283;DHT22;11810;51.178;3.878;2023-05-10T00:00:28;13.60;99.90
23283;DHT22;11810;51.178;3.878;2023-05-10T00:02:54;13.50;99.90
23283;DHT22;11810;51.178;3.878;2023-05-10T00:05:20;13.40;99.90
23283;DHT22;11810;51.178;3.878;2023-05-10T00:07:46;13.30;99.90
23283;DHT22;11810;51.178;3.878;2023-05-10T00:10:12;13.20;99.90
23283;DHT22;11810;51.178;3.878;2023-05-10T00:12:38;13.30;99.90
23283;DHT22;11810;51.178;3.878;2023-05-10T00:15:06;13.40;99.90
23283;DHT22;11810;51.178;3.878;2023-05-10T00:17:32;13.40;99.90
23283;DHT22;11810;51.178;3.878;2023-05-10T00:19:58;13.50;99.90
23283;DHT22;11810;51.178;3.878;2023-05-10T00:22:24;13.40;99.90
23283;DHT22;11810;51.178;3.878;2023-05-10T00:24:50;13.50;99.90
23283;DHT22;11810;51.178;3.878;2023-05-10T00:27:16;13.60;99.90
23283;DHT22;11810;51.178;3.878;2023-05-10T00:29:42;13.60;99.90
23283;DHT22;11810;51.178;3.878;2023-05-10T00:32:08;13.70;99.90
23283;DHT22;11810;51.178;3.878;2023-05-10T00:34:34;13.50;99.90
23283;DHT22;11810;51.178;3.878;2023-05-10T00:36:59;13.50;99.90
23283;DHT22;11810;51.178;3.878;2023-05-10T00:39:25;13.50;99.90
23283;DHT22;11810;51.178;3.878;2023-05-10T00:41:54;13.50;99.90
23283;DHT22;11810;51.178;3.878;2023-05-10T00:44:20;13.30;99.90
23283;DHT22;11810;51.178;3.878;2023-05-10T00:46:46;13.40;99.90
23283;DHT22;11810;51.178;3.878;2023-05-10T00:49:13;13.30;99.90
23283;DHT22;11810;51.178;3.878;2023-05-10T00:51:39;13.40;99.90
23283;DHT22;11810;51.178;3.878;2023-05-10T00:54:05;13.30;99.90
23283;DHT22;11810;51.178;3.878;2023-05-10T00:56:32;13.20;99.90
23283;DHT22;11810;51.178;3.878;2023-05-10T00:58:58;13.20;99.90
23283;DHT22;11810;51.178;3.878;2023-05-10T01:01:25;13.20;99.90
23283;DHT22;11810;51.178;3.878;2023-05-10T01:03:51;13.30;99.90
23283;DHT22;11810;51.178;3.878;2023-05-10T01:06:17;13.30;99.90
23283;DHT22;11810;51.178;3.878;2023-05-10T01:08:43;13.40;99.90
23283;DHT22;11810;51.178;3.878;2023-05-10T01:11:09;13.40;99.90
23283;DHT22;11810;51.178;3.878;2023-05-10T01:13:40;13.40;99.90
23283;DHT22;11810;51.178;3.878;2023-05-10T01:16:08;13.60;99.90
23283;DHT22;11810;51.178;3.878;2023-05-10T01:18:37;13.50;99.90
23283;DHT22;11810;51.178;3.878;2023-05-10T01:21:49;13.40;99.90
23283;DHT22;11810;51.178;3.878;2023-05-10T01:33:01;13.30;99.90
23283;DHT22;11810;51.178;3.878;2023-05-10T01:41:01;13.20;99.90
23283;DHT22;11810;51.178;3.878;2023-05-10T01:43:37;13.20;99.90
23283;DHT22;11810;51.178;3.878;2023-05-10T01:46:09;13.10;99.90
23283;DHT22;11810;51.178;3.878;2023-05-10T01:48:57;13.10;99.90
23283;DHT22;11810;51.178;3.878;2023-05-10T01:51:25;13.00;99.90
23283;DHT22;11810;51.178;3.878;2023-05-10T01:53:59;13.00;99.90
23283;DHT22;11810;51.178;3.878;2023-05-10T01:56:27;12.90;99.90
23283;DHT22;11810;51.178;3.878;2023-05-10T01:58:55;13.00;99.90
23283;DHT22;11810;51.178;3.878;2023-05-10T02:01:22;13.00;99.90
23283;DHT22;11810;51.178;3.878;2023-05-10T02:03:50;13.10;99.90
23283;DHT22;11810;51.178;3.878;2023-05-10T02:06:19;13.10;99.90
23283;DHT22;11810;51.178;3.878;2023-05-10T02:08:46;13.00;99.90
23283;DHT22;11810;51.178;3.878;2023-05-10T02:11:14;12.90;99.90
23283;DHT22;11810;51.178;3.878;2023-05-10T02:13:40;12.90;99.90
23283;DHT22;11810;51.178;3.878;2023-05-10T02:16:07;12.80;99.90
23283;DHT22;11810;51.178;3.878;2023-05-10T02:18:35;12.90;99.90
23283;DHT22;11810;51.178;3.878;2023-05-10T02:21:02;12.90;99.90
23283;DHT22;11810;51.178;3.878;2023-05-10T02:23:29;12.90;99.90
23283;DHT22;11810;51.178;3.878;2023-05-10T02:25:56;12.90;99.90
23283;DHT22;11810;51.178;3.878;2023-05-10T02:28:24;13.00;99.90
23283;DHT22;11810;51.178;3.878;2023-05-10T02:30:52;13.10;99.90
23283;DHT22;11810;51.178;3.878;2023-05-10T02:33:20;13.00;99.90
23283;DHT22;11810;51.178;3.878;2023-05-10T02:35:47;13.10;99.90
23283;DHT22;11810;51.178;3.878;2023-05-10T02:38:14;13.00;99.90
23283;DHT22;11810;51.178;3.878;2023-05-10T02:40:41;12.90;99.90
23283;DHT22;11810;51.178;3.878;2023-05-10T02:43:12;12.90;99.90
23283;DHT22;11810;51.178;3.878;2023-05-10T02:45:40;12.90;99.90
23283;DHT22;11810;51.178;3.878;2023-05-10T02:48:06;12.90;99.90
23283;DHT22;11810;51.178;3.878;2023-05-10T02:50:33;12.90;99.90
23283;DHT22;11810;51.178;3.878;2023-05-10T02:53:15;12.90;99.90
23283;DHT22;11810;51.178;3.878;2023-05-10T02:55:45;12.90;99.90
23283;DHT22;11810;51.178;3.878;2023-05-10T02:58:14;13.00;99.90
23283;DHT22;11810;51.178;3.878;2023-05-10T03:00:40;13.20;99.90
23283;DHT22;11810;51.178;3.878;2023-05-10T03:03:06;13.20;99.90
23283;DHT22;11810;51.178;3.878;2023-05-10T03:05:32;13.10;99.90
23283;DHT22;11810;51.178;3.878;2023-05-10T03:07:59;13.10;99.90
23283;DHT22;11810;51.178;3.878;2023-05-10T03:10:30;13.10;99.90
23283;DHT22;11810;51.178;3.878;2023-05-10T03:18:23;13.10;99.90
23283;DHT22;11810;51.178;3.878;2023-05-10T03:20:50;13.10;99.90
23283;DHT22;11810;51.178;3.878;2023-05-10T03:26:06;13.30;99.90
23283;DHT22;11810;51.178;3.878;2023-05-10T03:28:34;13.30;99.90
23283;DHT22;11810;51.178;3.878;2023-05-10T03:31:02;13.30;99.90
23283;DHT22;11810;51.178;3.878;2023-05-10T03:33:29;13.40;99.90
23283;DHT22;11810;51.178;3.878;2023-05-10T03:35:55;13.30;99.90
23283;DHT22;11810;51.178;3.878;2023-05-10T03:38:21;13.40;99.90
23283;DHT22;11810;51.178;3.878;2023-05-10T03:40:47;13.20;99.90
23283;DHT22;11810;51.178;3.878;2023-05-10T03:43:13;13.20;99.90
23283;DHT22;11810;51.178;3.878;2023-05-10T03:45:39;13.30;99.90
23283;DHT22;11810;51.178;3.878;2023-05-10T03:48:05;13.20;99.90
23283;DHT22;11810;51.178;3.878;2023-05-10T03:50:31;13.20;99.90
23283;DHT22;11810;51.178;3.878;2023-05-10T03:52:57;13.00;99.90
23283;DHT22;11810;51.178;3.878;2023-05-10T03:55:23;13.10;99.90
23283;DHT22;11810;51.178;3.878;2023-05-10T03:57:49;13.20;99.90
23283;DHT22;11810;51.178;3.878;2023-05-10T04:00:16;13.10;99.90
23283;DHT22;11810;51.178;3.878;2023-05-10T04:02:42;13.30;99.90
23283;DHT22;11810;51.178;3.878;2023-05-10T04:05:08;13.40;99.90
23283;DHT22;11810;51.178;3.878;2023-05-10T04:07:34;13.30;99.90
23283;DHT22;11810;51.178;3.878;2023-05-10T04:10:00;13.30;99.90
23283;DHT22;11810;51.178;3.878;2023-05-10T04:12:26;13.30;99.90
23283;DHT22;11810;51.178;3.878;2023-05-10T04:14:52;13.30;99.90
23283;DHT22;11810;51.178;3.878;2023-05-10T04:17:18;13.40;99.90
23283;DHT22;11810;51.178;3.878;2023-05-10T04:19:44;13.40;99.90
23283;DHT22;11810;51.178;3.878;2023-05-10T04:22:10;13.40;99.90
23283;DHT22;11810;51.178;3.878;2023-05-10T04:24:36;13.40;99.90
23283;DHT22;11810;51.178;3.878;2023-05-10T04:27:02;13.30;99.90
23283;DHT22;11810;51.178;3.878;2023-05-10T04:29:28;13.20;99.90
23283;DHT22;11810;51.178;3.878;2023-05-10T04:31:54;13.10;99.90
23283;DHT22;11810;51.178;3.878;2023-05-10T04:34:22;13.00;99.90
23283;DHT22;11810;51.178;3.878;2023-05-10T04:36:48;13.00;99.90
23283;DHT22;11810;51.178;3.878;2023-05-10T04:39:14;13.00;99.90
23283;DHT22;11810;51.178;3.878;2023-05-10T04:41:39;12.90;99.90
23283;DHT22;11810;51.178;3.878;2023-05-10T04:44:05;13.10;99.90
23283;DHT22;11810;51.178;3.878;2023-05-10T04:46:32;13.20;99.90
23283;DHT22;11810;51.178;3.878;2023-05-10T04:48:59;13.30;99.90
23283;DHT22;11810;51.178;3.878;2023-05-10T04:51:25;13.40;99.90
23283;DHT22;11810;51.178;3.878;2023-05-10T04:53:51;13.40;99.90
23283;DHT22;11810;51.178;3.878;2023-05-10T04:56:16;13.60;99.90
23283;DHT22;11810;51.178;3.878;2023-05-10T04:58:42;13.50;99.90
23283;DHT22;11810;51.178;3.878;2023-05-10T05:01:09;13.50;99.90
23283;DHT22;11810;51.178;3.878;2023-05-10T05:03:36;13.40;99.90
23283;DHT22;11810;51.178;3.878;2023-05-10T05:06:02;13.50;99.90
23283;DHT22;11810;51.178;3.878;2023-05-10T05:08:28;13.50;99.90
23283;DHT22;11810;51.178;3.878;2023-05-10T05:10:54;13.50;99.90
23283;DHT22;11810;51.178;3.878;2023-05-10T05:13:20;13.60;99.90
23283;DHT22;11810;51.178;3.878;2023-05-10T05:15:46;13.80;99.90
23283;DHT22;11810;51.178;3.878;2023-05-10T05:18:12;14.10;99.90
23283;DHT22;11810;51.178;3.878;2023-05-10T05:20:38;14.00;99.90
23283;DHT22;11810;51.178;3.878;2023-05-10T05:23:04;14.20;99.90
23283;DHT22;11810;51.178;3.878;2023-05-10T05:25:30;14.20;99.90
23283;DHT22;11810;51.178;3.878;2023-05-10T05:27:56;14.00;99.90
23283;DHT22;11810;51.178;3.878;2023-05-10T05:30:22;13.80;99.90
23283;DHT22;11810;51.178;3.878;2023-05-10T05:32:48;14.10;99.90
23283;DHT22;11810;51.178;3.878;2023-05-10T05:35:14;14.10;99.90
23283;DHT22;11810;51.178;3.878;2023-05-10T05:37:40;14.10;99.90
23283;DHT22;11810;51.178;3.878;2023-05-10T05:40:06;13.80;99.90
23283;DHT22;11810;51.178;3.878;2023-05-10T05:42:32;13.90;99.90
23283;DHT22;11810;51.178;3.878;2023-05-10T05:44:58;13.90;99.90
23283;DHT22;11810;51.178;3.878;2023-05-10T05:47:24;14.00;99.90
23283;DHT22;11810;51.178;3.878;2023-05-10T05:49:50;14.00;99.90
23283;DHT22;11810;51.178;3.878;2023-05-10T05:52:16;14.00;99.90
23283;DHT22;11810;51.178;3.878;2023-05-10T05:54:43;14.00;99.90
23283;DHT22;11810;51.178;3.878;2023-05-10T05:57:09;13.70;99.90
23283;DHT22;11810;51.178;3.878;2023-05-10T05:59:35;13.70;99.90
23283;DHT22;11810;51.178;3.878;2023-05-10T06:02:01;13.60;99.90
23283;DHT22;11810;51.178;3.878;2023-05-10T06:04:27;13.70;99.90
23283;DHT22;11810;51.178;3.878;2023-05-10T06:06:53;13.80;99.90
23283;DHT22;11810;51.178;3.878;2023-05-10T06:09:19;14.00;99.90
23283;DHT22;11810;51.178;3.878;2023-05-10T06:11:45;14.10;99.90
23283;DHT22;11810;51.178;3.878;2023-05-10T06:14:11;14.40;99.90
23283;DHT22;11810;51.178;3.878;2023-05-10T06:16:37;14.70;99.90
23283;DHT22;11810;51.178;3.878;2023-05-10T06:19:03;15.60;99.90
23283;DHT22;11810;51.178;3.878;2023-05-10T06:21:29;16.40;99.90
23283;DHT22;11810;51.178;3.878;2023-05-10T06:23:55;17.20;99.90
23283;DHT22;11810;51.178;3.878;2023-05-10T06:26:21;17.70;99.90
23283;DHT22;11810;51.178;3.878;2023-05-10T06:28:47;17.40;99.90
23283;DHT22;11810;51.178;3.878;2023-05-10T06:31:13;16.60;99.90
23283;DHT22;11810;51.178;3.878;2023-05-10T06:33:39;15.80;99.90
23283;DHT22;11810;51.178;3.878;2023-05-10T06:36:05;15.50;99.90
23283;DHT22;11810;51.178;3.878;2023-05-10T06:38:31;15.60;99.90
23283;DHT22;11810;51.178;3.878;2023-05-10T06:40:57;15.40;99.90
23283;DHT22;11810;51.178;3.878;2023-05-10T06:43:23;15.20;99.90
23283;DHT22;11810;51.178;3.878;2023-05-10T06:45:51;15.20;99.90
23283;DHT22;11810;51.178;3.878;2023-05-10T06:48:17;15.60;99.90
23283;DHT22;11810;51.178;3.878;2023-05-10T06:50:43;15.80;99.90
23283;DHT22;11810;51.178;3.878;2023-05-10T06:53:09;15.90;99.90
23283;DHT22;11810;51.178;3.878;2023-05-10T06:55:35;16.00;99.90
23283;DHT22;11810;51.178;3.878;2023-05-10T06:58:01;15.90;99.90
23283;DHT22;11810;51.178;3.878;2023-05-10T07:00:27;15.50;99.90
23283;DHT22;11810;51.178;3.878;2023-05-10T07:02:53;15.60;99.90
23283;DHT22;11810;51.178;3.878;2023-05-10T07:05:20;15.60;99.90
23283;DHT22;11810;51.178;3.878;2023-05-10T07:07:46;15.70;99.90
23283;DHT22;11810;51.178;3.878;2023-05-10T07:10:13;15.80;99.90
23283;DHT22;11810;51.178;3.878;2023-05-10T07:12:39;15.80;99.90
23283;DHT22;11810;51.178;3.878;2023-05-10T07:15:05;15.50;99.90
23283;DHT22;11810;51.178;3.878;2023-05-10T07:17:32;15.50;99.90
23283;DHT22;11810;51.178;3.878;2023-05-10T07:19:59;15.60;99.90
23283;DHT22;11810;51.178;3.878;2023-05-10T07:22:25;15.60;99.90
23283;DHT22;11810;51.178;3.878;2023-05-10T07:24:51;15.50;99.90
23283;DHT22;11810;51.178;3.878;2023-05-10T07:27:17;15.70;99.90
23283;DHT22;11810;51.178;3.878;2023-05-10T07:29:43;15.90;99.90
23283;DHT22;11810;51.178;3.878;2023-05-10T07:32:09;16.20;99.90
23283;DHT22;11810;51.178;3.878;2023-05-10T07:34:35;16.10;99.90
23283;DHT22;11810;51.178;3.878;2023-05-10T07:37:01;16.20;99.90
23283;DHT22;11810;51.178;3.878;2023-05-10T07:39:27;16.50;99.90
23283;DHT22;11810;51.178;3.878;2023-05-10T07:41:54;16.70;99.90
23283;DHT22;11810;51.178;3.878;2023-05-10T07:44:20;16.90;99.90
23283;DHT22;11810;51.178;3.878;2023-05-10T07:46:46;17.00;99.90
23283;DHT22;11810;51.178;3.878;2023-05-10T07:49:13;17.30;99.90
23283;DHT22;11810;51.178;3.878;2023-05-10T07:51:39;17.70;99.90
23283;DHT22;11810;51.178;3.878;2023-05-10T07:54:05;18.30;99.90
23283;DHT22;11810;51.178;3.878;2023-05-10T07:56:32;18.20;99.90
23283;DHT22;11810;51.178;3.878;2023-05-10T07:59:02;17.90;99.90
23283;DHT22;11810;51.178;3.878;2023-05-10T08:01:33;18.10;99.90
23283;DHT22;11810;51.178;3.878;2023-05-10T08:03:59;17.70;99.90
23283;DHT22;11810;51.178;3.878;2023-05-10T08:06:25;17.10;99.90
23283;DHT22;11810;51.178;3.878;2023-05-10T08:08:55;16.70;99.90
23283;DHT22;11810;51.178;3.878;2023-05-10T08:11:21;16.60;99.90
23283;DHT22;11810;51.178;3.878;2023-05-10T08:13:49;16.60;99.90
23283;DHT22;11810;51.178;3.878;2023-05-10T08:16:15;16.60;99.90
23283;DHT22;11810;51.178;3.878;2023-05-10T08:18:45;16.50;99.90
23283;DHT22;11810;51.178;3.878;2023-05-10T08:21:13;16.60;99.90
23283;DHT22;11810;51.178;3.878;2023-05-10T08:23:39;16.40;99.90
23283;DHT22;11810;51.178;3.878;2023-05-10T08:26:06;16.20;99.90
23283;DHT22;11810;51.178;3.878;2023-05-10T08:28:32;16.10;99.90
23283;DHT22;11810;51.178;3.878;2023-05-10T08:30:58;15.90;99.90
23283;DHT22;11810;51.178;3.878;2023-05-10T08:33:24;15.80;99.90
23283;DHT22;11810;51.178;3.878;2023-05-10T08:35:50;15.80;99.90
23283;DHT22;11810;51.178;3.878;2023-05-10T08:38:17;15.80;99.90
23283;DHT22;11810;51.178;3.878;2023-05-10T08:40:44;16.00;99.90
23283;DHT22;11810;51.178;3.878;2023-05-10T08:43:12;16.30;99.90
23283;DHT22;11810;51.178;3.878;2023-05-10T08:45:42;16.80;99.90
23283;DHT22;11810;51.178;3.878;2023-05-10T08:48:09;16.80;99.90
23283;DHT22;11810;51.178;3.878;2023-05-10T08:50:40;16.80;99.90
23283;DHT22;11810;51.178;3.878;2023-05-10T08:53:10;16.80;99.90
23283;DHT22;11810;51.178;3.878;2023-05-10T08:55:37;16.90;99.90
23283;DHT22;11810;51.178;3.878;2023-05-10T08:58:05;16.60;99.90
23283;DHT22;11810;51.178;3.878;2023-05-10T09:00:31;16.60;99.90
23283;DHT22;11810;51.178;3.878;2023-05-10T09:02:58;16.50;99.90
23283;DHT22;11810;51.178;3.878;2023-05-10T09:05:25;16.50;99.90
23283;DHT22;11810;51.178;3.878;2023-05-10T09:07:51;16.70;99.90
23283;DHT22;11810;51.178;3.878;2023-05-10T09:10:17;16.70;99.90
23283;DHT22;11810;51.178;3.878;2023-05-10T09:12:44;17.00;99.90
23283;DHT22;11810;51.178;3.878;2023-05-10T09:15:11;16.90;99.90
23283;DHT22;11810;51.178;3.878;2023-05-10T09:17:38;17.00;99.90
23283;DHT22;11810;51.178;3.878;2023-05-10T09:20:06;17.20;99.90
23283;DHT22;11810;51.178;3.878;2023-05-10T09:22:35;17.40;99.90
23283;DHT22;11810;51.178;3.878;2023-05-10T09:25:09;17.40;99.90
23283;DHT22;11810;51.178;3.878;2023-05-10T09:27:37;17.60;99.90
23283;DHT22;11810;51.178;3.878;2023-05-10T09:30:04;17.30;99.90
23283;DHT22;11810;51.178;3.878;2023-05-10T09:32:38;17.40;99.90
23283;DHT22;11810;51.178;3.878;2023-05-10T09:35:25;17.20;99.90
23283;DHT22;11810;51.178;3.878;2023-05-10T09:37:55;16.80;99.90
23283;DHT22;11810;51.178;3.878;2023-05-10T09:40:23;16.90;99.90
23283;DHT22;11810;51.178;3.878;2023-05-10T09:43:06;17.00;99.90
23283;DHT22;11810;51.178;3.878;2023-05-10T09:45:34;17.30;99.90
23283;DHT22;11810;51.178;3.878;2023-05-10T09:48:03;17.20;99.90
23283;DHT22;11810;51.178;3.878;2023-05-10T09:50:30;17.50;99.90
23283;DHT22;11810;51.178;3.878;2023-05-10T09:55:45;17.50;99.90
23283;DHT22;11810;51.178;3.878;2023-05-10T09:58:13;17.40;99.90
23283;DHT22;11810;51.178;3.878;2023-05-10T10:00:41;17.60;99.90
23283;DHT22;11810;51.178;3.878;2023-05-10T10:03:16;17.50;99.90
23283;DHT22;11810;51.178;3.878;2023-05-10T10:05:43;17.50;99.90
23283;DHT22;11810;51.178;3.878;2023-05-10T10:08:10;17.80;99.90
23283;DHT22;11810;51.178;3.878;2023-05-10T10:10:36;17.90;99.90
23283;DHT22;11810;51.178;3.878;2023-05-10T10:13:02;18.10;99.90
23283;DHT22;11810;51.178;3.878;2023-05-10T10:15:28;18.10;99.90
23283;DHT22;11810;51.178;3.878;2023-05-10T10:17:54;18.50;99.90
23283;DHT22;11810;51.178;3.878;2023-05-10T10:20:22;18.60;99.90
23283;DHT22;11810;51.178;3.878;2023-05-10T10:22:48;18.80;99.90
23283;DHT22;11810;51.178;3.878;2023-05-10T10:25:16;19.00;99.90
23283;DHT22;11810;51.178;3.878;2023-05-10T10:28:08;19.00;99.90
23283;DHT22;11810;51.178;3.878;2023-05-10T10:30:43;19.10;99.90
23283;DHT22;11810;51.178;3.878;2023-05-10T10:33:51;19.00;99.90
23283;DHT22;11810;51.178;3.878;2023-05-10T10:36:21;19.20;99.90
23283;DHT22;11810;51.178;3.878;2023-05-10T10:41:33;19.00;99.90
23283;DHT22;11810;51.178;3.878;2023-05-10T10:47:00;18.50;99.90
23283;DHT22;11810;51.178;3.878;2023-05-10T10:49:27;18.10;99.90
23283;DHT22;11810;51.178;3.878;2023-05-10T10:52:24;18.10;99.90
23283;DHT22;11810;51.178;3.878;2023-05-10T10:55:14;18.00;99.90
23283;DHT22;11810;51.178;3.878;2023-05-10T10:57:47;18.30;99.90
23283;DHT22;11810;51.178;3.878;2023-05-10T11:00:33;18.30;99.90
23283;DHT22;11810;51.178;3.878;2023-05-10T11:05:50;18.40;99.90
23283;DHT22;11810;51.178;3.878;2023-05-10T11:08:28;18.50;99.90
23283;DHT22;11810;51.178;3.878;2023-05-10T11:15:55;17.20;99.90
23283;DHT22;11810;51.178;3.878;2023-05-10T11:18:30;16.90;99.90
23283;DHT22;11810;51.178;3.878;2023-05-10T11:21:00;16.60;99.90
23283;DHT22;11810;51.178;3.878;2023-05-10T11:23:48;16.30;99.90
23283;DHT22;11810;51.178;3.878;2023-05-10T11:26:15;16.40;99.90
23283;DHT22;11810;51.178;3.878;2023-05-10T11:28:48;16.40;99.90
23283;DHT22;11810;51.178;3.878;2023-05-10T11:31:15;16.60;99.90
23283;DHT22;11810;51.178;3.878;2023-05-10T11:33:49;16.50;99.90
23283;DHT22;11810;51.178;3.878;2023-05-10T11:36:16;16.60;99.90
23283;DHT22;11810;51.178;3.878;2023-05-10T11:38:43;16.90;99.90
23283;DHT22;11810;51.178;3.878;2023-05-10T11:41:10;17.00;99.90
23283;DHT22;11810;51.178;3.878;2023-05-10T11:43:40;17.10;99.90
23283;DHT22;11810;51.178;3.878;2023-05-10T11:46:11;17.30;99.90
23283;DHT22;11810;51.178;3.878;2023-05-10T11:48:42;17.00;99.90
23283;DHT22;11810;51.178;3.878;2023-05-10T11:51:09;16.70;99.90
23283;DHT22;11810;51.178;3.878;2023-05-10T11:53:35;16.50;99.90
23283;DHT22;11810;51.178;3.878;2023-05-10T11:56:05;15.90;99.90
23283;DHT22;11810;51.178;3.878;2023-05-10T11:58:32;15.60;99.90
23283;DHT22;11810;51.178;3.878;2023-05-10T12:00:59;15.40;99.90
23283;DHT22;11810;51.178;3.878;2023-05-10T12:03:29;15.30;99.90
23283;DHT22;11810;51.178;3.878;2023-05-10T12:05:56;15.40;99.90
23283;DHT22;11810;51.178;3.878;2023-05-10T12:08:26;15.30;99.90
23283;DHT22;11810;51.178;3.878;2023-05-10T12:11:07;15.50;99.90
23283;DHT22;11810;51.178;3.878;2023-05-10T12:13:38;15.40;99.90
23283;DHT22;11810;51.178;3.878;2023-05-10T12:16:21;15.40;99.90
23283;DHT22;11810;51.178;3.878;2023-05-10T12:18:57;15.40;99.90
23283;DHT22;11810;51.178;3.878;2023-05-10T12:21:24;15.50;99.90
23283;DHT22;11810;51.178;3.878;2023-05-10T12:23:52;15.60;99.90
23283;DHT22;11810;51.178;3.878;2023-05-10T12:26:21;15.60;99.90
23283;DHT22;11810;51.178;3.878;2023-05-10T12:28:47;15.50;99.90
23283;DHT22;11810;51.178;3.878;2023-05-10T12:31:13;15.60;99.90
23283;DHT22;11810;51.178;3.878;2023-05-10T12:33:43;15.60;99.90
23283;DHT22;11810;51.178;3.878;2023-05-10T12:36:12;15.70;99.90
23283;DHT22;11810;51.178;3.878;2023-05-10T12:38:40;15.80;99.90
23283;DHT22;11810;51.178;3.878;2023-05-10T12:41:18;16.10;99.90
23283;DHT22;11810;51.178;3.878;2023-05-10T12:43:45;16.00;99.90
23283;DHT22;11810;51.178;3.878;2023-05-10T12:46:16;16.00;99.90
23283;DHT22;11810;51.178;3.878;2023-05-10T12:48:43;16.00;99.90
23283;DHT22;11810;51.178;3.878;2023-05-10T12:51:10;16.00;99.90
23283;DHT22;11810;51.178;3.878;2023-05-10T12:53:38;16.00;99.90
23283;DHT22;11810;51.178;3.878;2023-05-10T12:56:04;16.10;99.90
23283;DHT22;11810;51.178;3.878;2023-05-10T12:58:30;16.20;99.90
23283;DHT22;11810;51.178;3.878;2023-05-10T13:00:57;16.30;99.90
23283;DHT22;11810;51.178;3.878;2023-05-10T13:03:23;16.40;99.90
23283;DHT22;11810;51.178;3.878;2023-05-10T13:05:50;16.40;99.90
23283;DHT22;11810;51.178;3.878;2023-05-10T13:08:15;16.10;99.90
23283;DHT22;11810;51.178;3.878;2023-05-10T13:10:42;16.20;99.90
23283;DHT22;11810;51.178;3.878;2023-05-10T13:13:08;15.90;99.90
23283;DHT22;11810;51.178;3.878;2023-05-10T13:15:34;15.60;99.90
23283;DHT22;11810;51.178;3.878;2023-05-10T13:18:00;15.60;99.90
23283;DHT22;11810;51.178;3.878;2023-05-10T13:20:26;15.50;99.90
23283;DHT22;11810;51.178;3.878;2023-05-10T13:22:53;15.40;99.90
23283;DHT22;11810;51.178;3.878;2023-05-10T13:25:19;15.30;99.90
23283;DHT22;11810;51.178;3.878;2023-05-10T13:27:45;15.40;99.90
23283;DHT22;11810;51.178;3.878;2023-05-10T13:30:11;15.30;99.90
23283;DHT22;11810;51.178;3.878;2023-05-10T13:32:37;15.40;99.90
23283;DHT22;11810;51.178;3.878;2023-05-10T13:35:04;15.30;99.90
23283;DHT22;11810;51.178;3.878;2023-05-10T13:37:31;15.10;99.90
23283;DHT22;11810;51.178;3.878;2023-05-10T13:39:57;14.70;99.90
23283;DHT22;11810;51.178;3.878;2023-05-10T13:42:24;14.60;99.90
23283;DHT22;11810;51.178;3.878;2023-05-10T13:44:50;14.50;99.90
23283;DHT22;11810;51.178;3.878;2023-05-10T13:47:16;14.50;99.90
23283;DHT22;11810;51.178;3.878;2023-05-10T13:49:42;14.70;99.90
23283;DHT22;11810;51.178;3.878;2023-05-10T13:52:08;14.80;99.90
23283;DHT22;11810;51.178;3.878;2023-05-10T13:54:36;14.80;99.90
23283;DHT22;11810;51.178;3.878;2023-05-10T13:57:02;14.80;99.90
23283;DHT22;11810;51.178;3.878;2023-05-10T13:59:29;14.90;99.90
23283;DHT22;11810;51.178;3.878;2023-05-10T14:01:57;14.90;99.90
23283;DHT22;11810;51.178;3.878;2023-05-10T14:04:24;15.00;99.90
23283;DHT22;11810;51.178;3.878;2023-05-10T14:06:50;15.10;99.90
23283;DHT22;11810;51.178;3.878;2023-05-10T14:09:16;15.20;99.90
23283;DHT22;11810;51.178;3.878;2023-05-10T14:11:42;15.30;99.90
23283;DHT22;11810;51.178;3.878;2023-05-10T14:14:12;15.40;99.90
23283;DHT22;11810;51.178;3.878;2023-05-10T14:16:42;15.50;99.90
23283;DHT22;11810;51.178;3.878;2023-05-10T14:19:09;15.60;99.90
23283;DHT22;11810;51.178;3.878;2023-05-10T14:21:35;15.70;99.90
23283;DHT22;11810;51.178;3.878;2023-05-10T14:24:01;15.80;99.90
23283;DHT22;11810;51.178;3.878;2023-05-10T14:26:27;15.80;99.90
23283;DHT22;11810;51.178;3.878;2023-05-10T14:28:53;16.00;99.90
23283;DHT22;11810;51.178;3.878;2023-05-10T14:31:19;15.90;99.90
23283;DHT22;11810;51.178;3.878;2023-05-10T14:33:46;16.10;99.90
23283;DHT22;11810;51.178;3.878;2023-05-10T14:36:13;16.20;99.90
23283;DHT22;11810;51.178;3.878;2023-05-10T14:38:39;16.20;99.90
23283;DHT22;11810;51.178;3.878;2023-05-10T14:41:05;16.10;99.90
23283;DHT22;11810;51.178;3.878;2023-05-10T14:43:31;16.00;99.90
23283;DHT22;11810;51.178;3.878;2023-05-10T14:45:58;15.90;99.90
23283;DHT22;11810;51.178;3.878;2023-05-10T14:48:24;16.10;99.90
23283;DHT22;11810;51.178;3.878;2023-05-10T14:50:50;16.00;99.90
23283;DHT22;11810;51.178;3.878;2023-05-10T14:53:18;16.00;99.90
23283;DHT22;11810;51.178;3.878;2023-05-10T14:55:43;15.90;99.90
23283;DHT22;11810;51.178;3.878;2023-05-10T14:58:09;15.90;99.90
23283;DHT22;11810;51.178;3.878;2023-05-10T15:00:35;15.90;99.90
23283;DHT22;11810;51.178;3.878;2023-05-10T15:03:01;16.00;99.90
23283;DHT22;11810;51.178;3.878;2023-05-10T15:05:27;16.00;99.90
23283;DHT22;11810;51.178;3.878;2023-05-10T15:07:53;16.20;99.90
23283;DHT22;11810;51.178;3.878;2023-05-10T15:10:19;16.20;99.90
23283;DHT22;11810;51.178;3.878;2023-05-10T15:12:45;16.40;99.90
23283;DHT22;11810;51.178;3.878;2023-05-10T15:15:11;16.20;99.90
23283;DHT22;11810;51.178;3.878;2023-05-10T15:17:37;16.30;99.90
23283;DHT22;11810;51.178;3.878;2023-05-10T15:20:03;16.30;99.90
23283;DHT22;11810;51.178;3.878;2023-05-10T15:22:30;16.30;99.90
23283;DHT22;11810;51.178;3.878;2023-05-10T15:24:58;16.20;99.90
23283;DHT22;11810;51.178;3.878;2023-05-10T15:27:25;16.30;99.90
23283;DHT22;11810;51.178;3.878;2023-05-10T15:29:52;16.40;99.90
23283;DHT22;11810;51.178;3.878;2023-05-10T15:32:18;16.30;99.90
23283;DHT22;11810;51.178;3.878;2023-05-10T15:34:44;16.30;99.90
23283;DHT22;11810;51.178;3.878;2023-05-10T15:37:10;16.30;99.90
23283;DHT22;11810;51.178;3.878;2023-05-10T15:39:36;16.20;99.90
23283;DHT22;11810;51.178;3.878;2023-05-10T15:42:02;16.30;99.90
23283;DHT22;11810;51.178;3.878;2023-05-10T15:44:28;16.40;99.90
23283;DHT22;11810;51.178;3.878;2023-05-10T15:46:54;16.30;99.90
23283;DHT22;11810;51.178;3.878;2023-05-10T15:49:21;16.40;99.90
23283;DHT22;11810;51.178;3.878;2023-05-10T15:51:47;16.40;99.90
23283;DHT22;11810;51.178;3.878;2023-05-10T15:54:13;16.20;99.90
23283;DHT22;11810;51.178;3.878;2023-05-10T15:56:39;16.20;99.90
23283;DHT22;11810;51.178;3.878;2023-05-10T15:59:06;16.00;99.90
23283;DHT22;11810;51.178;3.878;2023-05-10T16:01:33;16.20;99.90
23283;DHT22;11810;51.178;3.878;2023-05-10T16:03:59;16.20;99.90
23283;DHT22;11810;51.178;3.878;2023-05-10T16:06:25;16.20;99.90
23283;DHT22;11810;51.178;3.878;2023-05-10T16:08:51;16.40;99.90
23283;DHT22;11810;51.178;3.878;2023-05-10T16:11:17;16.40;99.90